ADDS METAR Data INFO
IDs: Format: Raw Decoded Include TAF

Data at: 0437 UTC 28 Jul 2017

KOZA 280415Z AUTO 16004KT CLR 27/13 A3003 RMK AO2 PWINO
KOZA 280355Z AUTO 00000KT CLR 27/13 A3003 RMK AO2 PWINO
KOZA 280335Z AUTO 16003KT CLR 28/12 A3002 RMK AO2 PWINO
KOZA 280315Z AUTO 16004KT CLR 29/12 A3002 RMK AO2 PWINO
KOZA 280255Z AUTO 16006KT CLR 30/12 A3001 RMK AO2 PWINO
KOZA 280235Z AUTO 16006KT CLR 30/12 A3000 RMK AO2 PWINO
KOZA 280215Z AUTO 16008KT CLR 31/12 A2999 RMK AO2 PWINO
KOZA 280155Z AUTO 16008KT 10SM CLR 31/12 A2999 RMK AO2
KOZA 280135Z AUTO 15011G16KT 10SM CLR 32/12 A2998 RMK AO2
KOZA 280115Z AUTO 15008G18KT 10SM CLR 33/12 A2998 RMK AO2
KOZA 280055Z AUTO 17013G16KT 10SM CLR 33/12 A2998 RMK AO2
KOZA 280035Z AUTO 17011G16KT 10SM CLR 34/12 A2998 RMK AO2
KOZA 280015Z AUTO 17011KT 10SM CLR 35/12 A2998 RMK AO2
KOZA 272355Z AUTO 16011G17KT 10SM CLR 35/12 A2999 RMK AO2
KOZA 272335Z AUTO 13014G20KT 10SM CLR 35/12 A2999 RMK AO2
KOZA 272315Z AUTO 14010G18KT 120V180 10SM CLR 35/12 A3000 RMK AO2
KOZA 272255Z AUTO 15015G18KT 10SM CLR 36/12 A3001 RMK AO2
KOZA 272235Z AUTO 17012G15KT 10SM CLR 36/11 A3001 RMK AO2
KOZA 272215Z AUTO 16012G19KT 10SM CLR 36/12 A3002 RMK AO2
KOZA 272155Z AUTO 17013KT 10SM CLR 36/12 A3002 RMK AO2
KOZA 272135Z AUTO 16011G18KT 10SM CLR 36/12 A3003 RMK AO2
KOZA 272115Z AUTO 17013G19KT 10SM CLR 36/12 A3004 RMK AO2
KOZA 272055Z AUTO 19007G22KT 10SM CLR 36/11 A3004 RMK AO2
KOZA 272035Z AUTO 15012G17KT 10SM CLR 36/12 A3005 RMK AO2
KOZA 272015Z AUTO 15012G18KT 10SM CLR 36/13 A3006 RMK AO2
KOZA 271955Z AUTO 20011G17KT 10SM CLR 35/12 A3007 RMK AO2
KOZA 271935Z AUTO 17014G18KT 10SM CLR 35/12 A3008 RMK AO2
KOZA 271915Z AUTO 16013G17KT 10SM CLR 35/12 A3009 RMK AO2
KOZA 271855Z AUTO 15011G19KT 120V180 10SM CLR 34/13 A3010 RMK AO2
KOZA 271835Z AUTO 20009G18KT 170V230 10SM CLR 34/13 A3010 RMK AO2
KOZA 271815Z AUTO 16012G18KT 150V210 10SM CLR 33/14 A3011 RMK AO2
KOZA 271755Z AUTO 20014G19KT 10SM CLR 33/14 A3011 RMK AO2
KOZA 271735Z AUTO 18012G18KT 10SM CLR 33/15 A3012 RMK AO2
KOZA 271715Z AUTO 20012G18KT 10SM CLR 32/16 A3012 RMK AO2
KOZA 271655Z AUTO 19014KT 10SM CLR 32/16 A3012 RMK AO2
KOZA 271635Z AUTO 15013G18KT 10SM CLR 31/17 A3012 RMK AO2
KOZA 271615Z AUTO 17014KT 10SM CLR 30/17 A3012 RMK AO2
KOZA 271555Z AUTO 19011G16KT 10SM CLR 30/17 A3013 RMK AO2
KOZA 271535Z AUTO 19012KT 10SM CLR 28/18 A3013 RMK AO2
KOZA 271515Z AUTO 19011KT 10SM CLR 27/18 A3013 RMK AO2
KOZA 271455Z AUTO 18011G15KT 10SM CLR 27/18 A3013 RMK AO2
KOZA 271435Z AUTO 17011KT 10SM CLR 26/18 A3012 RMK AO2
KOZA 271415Z AUTO 17013KT 10SM CLR 25/18 A3012 RMK AO2
KOZA 271355Z AUTO 18011G16KT 10SM CLR 25/18 A3012 RMK AO2
KOZA 271335Z AUTO 17011G14KT 10SM CLR 24/18 A3012 RMK AO2
KOZA 271315Z AUTO 16010G14KT 10SM CLR 23/18 A3012 RMK AO2
KOZA 271255Z AUTO 16006KT 10SM CLR 22/18 A3011 RMK AO2
KOZA 271235Z AUTO 16004KT 10SM CLR 22/17 A3011 RMK AO2
KOZA 271215Z AUTO 15007KT 10SM CLR 21/17 A3010 RMK AO2
KOZA 271155Z AUTO 16006KT 10SM CLR 21/17 A3010 RMK AO2
KOZA 271135Z AUTO 16006KT CLR 22/17 A3010 RMK AO2 PWINO
KOZA 271115Z AUTO 17006KT CLR 22/17 A3009 RMK AO2 PWINO
KOZA 271055Z AUTO 17007KT CLR 22/17 A3009 RMK AO2 PWINO
KOZA 271035Z AUTO 18007KT CLR 23/17 A3009 RMK AO2 PWINO
KOZA 271015Z AUTO 18009KT CLR 23/17 A3009 RMK AO2 PWINO
KOZA 270955Z AUTO 18010KT CLR 23/16 A3009 RMK AO2 PWINO
KOZA 270935Z AUTO 18008KT CLR 23/16 A3009 RMK AO2 LTG DSNT NW PWINO
KOZA 270915Z AUTO 18010KT CLR 24/16 A3010 RMK AO2 PWINO
KOZA 270855Z AUTO 18011G18KT CLR 25/15 A3010 RMK AO2 PWINO
KOZA 270835Z AUTO 17013G19KT CLR 25/15 A3010 RMK AO2 PWINO
KOZA 270815Z AUTO 17014G20KT CLR 25/15 A3010 RMK AO2 PWINO
KOZA 270755Z AUTO 18012G17KT CLR 25/15 A3010 RMK AO2 PWINO
KOZA 270735Z AUTO 18012G19KT CLR 26/15 A3011 RMK AO2 PWINO
KOZA 270715Z AUTO 18013G19KT CLR 26/16 A3010 RMK AO2 PWINO
KOZA 270655Z AUTO 17014G20KT CLR 26/16 A3011 RMK AO2 PWINO
KOZA 270635Z AUTO 17014G23KT CLR 26/17 A3010 RMK AO2 PWINO
KOZA 270615Z AUTO 17017G21KT CLR 27/16 A3010 RMK AO2 PWINO
KOZA 270555Z AUTO 17014G25KT CLR 27/16 A3010 RMK AO2 PWINO
KOZA 270535Z AUTO 17014KT CLR 27/15 A3010 RMK AO2 PWINO
KOZA 270515Z AUTO 17010G16KT CLR 27/15 A3009 RMK AO2 PWINO
KOZA 270455Z AUTO 16009KT CLR 27/13 A3009 RMK AO2 PWINO
KOZA 270435Z AUTO 15009KT CLR 28/13 A3009 RMK AO2 PWINO
KOZA 270415Z AUTO 15005KT CLR 27/13 A3008 RMK AO2 PWINO
KOZA 270355Z AUTO 14006KT CLR 27/13 A3008 RMK AO2 PWINO
KOZA 270335Z AUTO 14005KT CLR 28/12 A3007 RMK AO2 PWINO
KOZA 270315Z AUTO 15006KT CLR 29/12 A3006 RMK AO2 PWINO
KOZA 270255Z AUTO 15007KT CLR 30/12 A3006 RMK AO2 PWINO
KOZA 270235Z AUTO 15006KT CLR 30/12 A3005 RMK AO2 PWINO
KOZA 270215Z AUTO 15007KT CLR 31/12 A3005 RMK AO2 PWINO
KOZA 270155Z AUTO 16011KT 10SM CLR 32/12 A3005 RMK AO2
KOZA 270135Z AUTO 16011G16KT 10SM CLR 32/12 A3005 RMK AO2
KOZA 270115Z AUTO 16012KT 10SM CLR 33/12 A3004 RMK AO2
KOZA 270055Z AUTO 16010G18KT 10SM CLR 33/12 A3004 RMK AO2
KOZA 270035Z AUTO 17013G18KT 10SM CLR 34/12 A3003 RMK AO2
KOZA 270015Z AUTO 17016KT 10SM CLR 35/12 A3003 RMK AO2
KOZA 262355Z AUTO 18011G17KT 10SM CLR 35/11 A3003 RMK AO2
KOZA 262335Z AUTO 17015G20KT 10SM CLR 36/11 A3003 RMK AO2
KOZA 262315Z AUTO 18014G20KT 10SM CLR 36/11 A3003 RMK AO2
KOZA 262255Z AUTO 16017G22KT 10SM CLR 36/11 A3003 RMK AO2
KOZA 262235Z AUTO 17009G20KT 10SM CLR 36/11 A3004 RMK AO2
KOZA 262215Z AUTO 13015KT 10SM CLR 36/11 A3004 RMK AO2
KOZA 262155Z AUTO 17013G19KT 10SM CLR 36/12 A3005 RMK AO2
KOZA 262135Z AUTO 18014G20KT 10SM CLR 36/11 A3006 RMK AO2
KOZA 262115Z AUTO 20015G20KT 10SM CLR 36/11 A3006 RMK AO2
KOZA 262055Z AUTO 20017G22KT 10SM CLR 36/11 A3007 RMK AO2
KOZA 262035Z AUTO 20013G23KT 10SM CLR 36/11 A3008 RMK AO2
KOZA 262015Z AUTO 19018G22KT 10SM CLR 35/12 A3009 RMK AO2
KOZA 261955Z AUTO 18018G24KT 10SM CLR 35/11 A3010 RMK AO2
KOZA 261935Z AUTO 16015G24KT 10SM CLR 35/12 A3011 RMK AO2
KOZA 261915Z AUTO 19015G23KT 10SM CLR 35/12 A3012 RMK AO2
KOZA 261855Z AUTO 18016G22KT 10SM CLR 35/13 A3012 RMK AO2
KOZA 261835Z AUTO 17014G26KT 10SM CLR 33/12 A3013 RMK AO2
KOZA 261815Z AUTO 15018G21KT 10SM CLR 34/13 A3014 RMK AO2
KOZA 261755Z AUTO 17013G19KT 10SM CLR 33/13 A3014 RMK AO2
KOZA 261735Z AUTO 18017G23KT 10SM CLR 32/13 A3015 RMK AO2
KOZA 261715Z AUTO 17012G19KT 10SM CLR 32/14 A3016 RMK AO2
KOZA 261655Z AUTO 17014G20KT 10SM CLR 31/14 A3016 RMK AO2